sensor_id;sensor_type;location;lat;lon;timestamp;P1;durP1;ratioP1;P2;durP2;ratioP2
3718;SDS011;1875;52.492;6.860;2023-12-20T00:01:16;19.25;;;5.25;;
3718;SDS011;1875;52.492;6.860;2023-12-20T00:03:44;18.08;;;5.95;;
3718;SDS011;1875;52.492;6.860;2023-12-20T00:06:12;16.75;;;5.35;;
3718;SDS011;1875;52.492;6.860;2023-12-20T00:08:40;19.10;;;6.85;;
3718;SDS011;1875;52.492;6.860;2023-12-20T00:11:08;10.55;;;4.60;;
3718;SDS011;1875;52.492;6.860;2023-12-20T00:13:36;17.63;;;5.97;;
3718;SDS011;1875;52.492;6.860;2023-12-20T00:16:05;20.48;;;5.47;;
3718;SDS011;1875;52.492;6.860;2023-12-20T00:18:33;10.07;;;4.88;;
3718;SDS011;1875;52.492;6.860;2023-12-20T00:21:01;11.45;;;4.60;;
3718;SDS011;1875;52.492;6.860;2023-12-20T00:23:29;14.52;;;4.70;;
3718;SDS011;1875;52.492;6.860;2023-12-20T00:25:57;20.10;;;5.20;;
3718;SDS011;1875;52.492;6.860;2023-12-20T00:28:24;17.67;;;5.97;;
3718;SDS011;1875;52.492;6.860;2023-12-20T00:30:53;13.70;;;4.97;;
3718;SDS011;1875;52.492;6.860;2023-12-20T00:33:22;18.80;;;5.90;;
3718;SDS011;1875;52.492;6.860;2023-12-20T00:35:50;13.65;;;5.03;;
3718;SDS011;1875;52.492;6.860;2023-12-20T00:38:18;12.80;;;5.53;;
3718;SDS011;1875;52.492;6.860;2023-12-20T00:40:46;11.70;;;4.90;;
3718;SDS011;1875;52.492;6.860;2023-12-20T00:43:13;14.73;;;5.57;;
3718;SDS011;1875;52.492;6.860;2023-12-20T00:45:41;13.48;;;4.88;;
3718;SDS011;1875;52.492;6.860;2023-12-20T00:48:09;10.80;;;4.65;;
3718;SDS011;1875;52.492;6.860;2023-12-20T00:50:38;16.52;;;4.90;;
3718;SDS011;1875;52.492;6.860;2023-12-20T00:53:06;14.00;;;4.72;;
3718;SDS011;1875;52.492;6.860;2023-12-20T00:55:34;19.40;;;4.70;;
3718;SDS011;1875;52.492;6.860;2023-12-20T00:58:02;14.93;;;4.20;;
3718;SDS011;1875;52.492;6.860;2023-12-20T01:00:30;13.48;;;4.88;;
3718;SDS011;1875;52.492;6.860;2023-12-20T01:02:57;14.65;;;5.20;;
3718;SDS011;1875;52.492;6.860;2023-12-20T01:05:25;18.42;;;5.55;;
3718;SDS011;1875;52.492;6.860;2023-12-20T01:07:55;15.25;;;4.95;;
3718;SDS011;1875;52.492;6.860;2023-12-20T01:10:22;19.90;;;4.38;;
3718;SDS011;1875;52.492;6.860;2023-12-20T01:12:54;13.60;;;5.40;;
3718;SDS011;1875;52.492;6.860;2023-12-20T01:15:22;15.30;;;4.32;;
3718;SDS011;1875;52.492;6.860;2023-12-20T01:17:50;18.92;;;4.15;;
3718;SDS011;1875;52.492;6.860;2023-12-20T01:20:18;34.60;;;4.75;;
3718;SDS011;1875;52.492;6.860;2023-12-20T01:22:46;15.70;;;5.00;;
3718;SDS011;1875;52.492;6.860;2023-12-20T01:25:16;17.27;;;4.50;;
3718;SDS011;1875;52.492;6.860;2023-12-20T01:27:43;13.35;;;4.18;;
3718;SDS011;1875;52.492;6.860;2023-12-20T01:30:12;13.88;;;4.18;;
3718;SDS011;1875;52.492;6.860;2023-12-20T01:32:40;17.73;;;4.28;;
3718;SDS011;1875;52.492;6.860;2023-12-20T01:35:08;9.75;;;3.25;;
3718;SDS011;1875;52.492;6.860;2023-12-20T01:37:36;16.60;;;3.85;;
3718;SDS011;1875;52.492;6.860;2023-12-20T01:40:04;13.90;;;2.95;;
3718;SDS011;1875;52.492;6.860;2023-12-20T01:42:34;13.32;;;3.85;;
3718;SDS011;1875;52.492;6.860;2023-12-20T01:45:02;18.80;;;3.72;;
3718;SDS011;1875;52.492;6.860;2023-12-20T01:47:30;14.27;;;3.63;;
3718;SDS011;1875;52.492;6.860;2023-12-20T01:49:58;15.50;;;3.70;;
3718;SDS011;1875;52.492;6.860;2023-12-20T01:52:26;15.85;;;3.88;;
3718;SDS011;1875;52.492;6.860;2023-12-20T01:54:54;18.20;;;3.90;;
3718;SDS011;1875;52.492;6.860;2023-12-20T01:57:27;14.65;;;3.42;;
3718;SDS011;1875;52.492;6.860;2023-12-20T01:59:56;20.63;;;3.85;;
3718;SDS011;1875;52.492;6.860;2023-12-20T02:02:24;11.25;;;3.40;;
3718;SDS011;1875;52.492;6.860;2023-12-20T02:07:22;19.05;;;4.05;;
3718;SDS011;1875;52.492;6.860;2023-12-20T02:09:51;25.20;;;3.97;;
3718;SDS011;1875;52.492;6.860;2023-12-20T02:12:19;16.10;;;4.28;;
3718;SDS011;1875;52.492;6.860;2023-12-20T02:14:47;14.93;;;3.13;;
3718;SDS011;1875;52.492;6.860;2023-12-20T02:17:17;23.90;;;3.35;;
3718;SDS011;1875;52.492;6.860;2023-12-20T02:19:45;8.07;;;2.60;;
3718;SDS011;1875;52.492;6.860;2023-12-20T02:22:14;14.70;;;4.00;;
3718;SDS011;1875;52.492;6.860;2023-12-20T02:24:42;22.55;;;4.28;;
3718;SDS011;1875;52.492;6.860;2023-12-20T02:27:10;13.40;;;4.15;;
3718;SDS011;1875;52.492;6.860;2023-12-20T02:29:38;15.60;;;4.55;;
3718;SDS011;1875;52.492;6.860;2023-12-20T02:32:06;6.63;;;3.55;;
3718;SDS011;1875;52.492;6.860;2023-12-20T02:34:34;17.52;;;4.30;;
3718;SDS011;1875;52.492;6.860;2023-12-20T02:37:02;18.67;;;4.40;;
3718;SDS011;1875;52.492;6.860;2023-12-20T02:39:31;23.90;;;4.47;;
3718;SDS011;1875;52.492;6.860;2023-12-20T02:42:00;14.80;;;3.85;;
3718;SDS011;1875;52.492;6.860;2023-12-20T02:44:28;22.98;;;5.65;;
3718;SDS011;1875;52.492;6.860;2023-12-20T02:46:55;16.73;;;4.22;;
3718;SDS011;1875;52.492;6.860;2023-12-20T02:49:23;21.67;;;4.00;;
3718;SDS011;1875;52.492;6.860;2023-12-20T02:51:51;9.90;;;3.28;;
3718;SDS011;1875;52.492;6.860;2023-12-20T02:54:19;19.65;;;4.50;;
3718;SDS011;1875;52.492;6.860;2023-12-20T02:56:49;16.30;;;4.53;;
3718;SDS011;1875;52.492;6.860;2023-12-20T02:59:16;12.20;;;3.70;;
3718;SDS011;1875;52.492;6.860;2023-12-20T03:01:45;24.90;;;5.50;;
3718;SDS011;1875;52.492;6.860;2023-12-20T03:04:13;15.95;;;5.00;;
3718;SDS011;1875;52.492;6.860;2023-12-20T03:06:41;26.73;;;3.28;;
3718;SDS011;1875;52.492;6.860;2023-12-20T03:09:08;20.27;;;3.75;;
3718;SDS011;1875;52.492;6.860;2023-12-20T03:11:36;21.20;;;4.22;;
3718;SDS011;1875;52.492;6.860;2023-12-20T03:14:05;14.40;;;3.17;;
3718;SDS011;1875;52.492;6.860;2023-12-20T03:16:33;12.50;;;4.10;;
3718;SDS011;1875;52.492;6.860;2023-12-20T03:19:02;32.78;;;5.28;;
3718;SDS011;1875;52.492;6.860;2023-12-20T03:21:30;15.27;;;4.75;;
3718;SDS011;1875;52.492;6.860;2023-12-20T03:23:58;21.40;;;3.95;;
3718;SDS011;1875;52.492;6.860;2023-12-20T03:26:26;19.48;;;4.68;;
3718;SDS011;1875;52.492;6.860;2023-12-20T03:28:54;19.42;;;3.42;;
3718;SDS011;1875;52.492;6.860;2023-12-20T03:31:23;26.23;;;4.95;;
3718;SDS011;1875;52.492;6.860;2023-12-20T03:33:51;19.63;;;4.45;;
3718;SDS011;1875;52.492;6.860;2023-12-20T03:36:20;21.58;;;3.88;;
3718;SDS011;1875;52.492;6.860;2023-12-20T03:38:48;18.23;;;4.78;;
3718;SDS011;1875;52.492;6.860;2023-12-20T03:41:16;16.98;;;3.88;;
3718;SDS011;1875;52.492;6.860;2023-12-20T03:43:43;17.95;;;3.42;;
3718;SDS011;1875;52.492;6.860;2023-12-20T03:46:11;12.95;;;3.35;;
3718;SDS011;1875;52.492;6.860;2023-12-20T03:48:40;15.43;;;3.70;;
3718;SDS011;1875;52.492;6.860;2023-12-20T03:51:08;14.68;;;3.85;;
3718;SDS011;1875;52.492;6.860;2023-12-20T03:53:36;17.85;;;4.35;;
3718;SDS011;1875;52.492;6.860;2023-12-20T03:56:04;20.88;;;3.53;;
3718;SDS011;1875;52.492;6.860;2023-12-20T03:58:32;24.45;;;4.63;;
3718;SDS011;1875;52.492;6.860;2023-12-20T04:01:00;16.25;;;3.30;;
3718;SDS011;1875;52.492;6.860;2023-12-20T04:03:29;27.80;;;4.88;;
3718;SDS011;1875;52.492;6.860;2023-12-20T04:05:58;18.73;;;4.75;;
3718;SDS011;1875;52.492;6.860;2023-12-20T04:08:26;17.60;;;2.47;;
3718;SDS011;1875;52.492;6.860;2023-12-20T04:10:54;21.08;;;4.65;;
3718;SDS011;1875;52.492;6.860;2023-12-20T04:13:21;25.25;;;5.35;;
3718;SDS011;1875;52.492;6.860;2023-12-20T04:15:49;20.80;;;4.35;;
3718;SDS011;1875;52.492;6.860;2023-12-20T04:18:18;20.60;;;4.05;;
3718;SDS011;1875;52.492;6.860;2023-12-20T04:20:46;17.83;;;4.18;;
3718;SDS011;1875;52.492;6.860;2023-12-20T04:23:15;23.33;;;3.90;;
3718;SDS011;1875;52.492;6.860;2023-12-20T04:25:42;15.18;;;4.35;;
3718;SDS011;1875;52.492;6.860;2023-12-20T04:28:10;25.65;;;6.35;;
3718;SDS011;1875;52.492;6.860;2023-12-20T04:30:38;25.02;;;4.05;;
3718;SDS011;1875;52.492;6.860;2023-12-20T04:33:06;15.45;;;3.50;;
3718;SDS011;1875;52.492;6.860;2023-12-20T04:35:34;24.45;;;4.90;;
3718;SDS011;1875;52.492;6.860;2023-12-20T04:38:02;29.25;;;5.97;;
3718;SDS011;1875;52.492;6.860;2023-12-20T04:40:31;19.05;;;4.10;;
3718;SDS011;1875;52.492;6.860;2023-12-20T04:42:59;23.13;;;3.88;;
3718;SDS011;1875;52.492;6.860;2023-12-20T04:45:27;16.45;;;3.08;;
3718;SDS011;1875;52.492;6.860;2023-12-20T04:47:55;21.08;;;4.13;;
3718;SDS011;1875;52.492;6.860;2023-12-20T04:50:22;19.67;;;3.80;;
3718;SDS011;1875;52.492;6.860;2023-12-20T04:52:50;25.65;;;4.80;;
3718;SDS011;1875;52.492;6.860;2023-12-20T04:55:18;22.95;;;5.78;;
3718;SDS011;1875;52.492;6.860;2023-12-20T04:57:47;24.25;;;5.18;;
3718;SDS011;1875;52.492;6.860;2023-12-20T05:00:16;23.95;;;3.30;;
3718;SDS011;1875;52.492;6.860;2023-12-20T05:02:44;13.40;;;5.13;;
3718;SDS011;1875;52.492;6.860;2023-12-20T05:05:11;26.02;;;5.82;;
3718;SDS011;1875;52.492;6.860;2023-12-20T05:07:41;23.05;;;4.45;;
3718;SDS011;1875;52.492;6.860;2023-12-20T05:10:10;19.88;;;4.05;;
3718;SDS011;1875;52.492;6.860;2023-12-20T05:12:38;27.08;;;4.68;;
3718;SDS011;1875;52.492;6.860;2023-12-20T05:15:07;22.60;;;3.83;;
3718;SDS011;1875;52.492;6.860;2023-12-20T05:17:35;19.80;;;4.72;;
3718;SDS011;1875;52.492;6.860;2023-12-20T05:20:04;16.80;;;3.47;;
3718;SDS011;1875;52.492;6.860;2023-12-20T05:22:32;17.73;;;4.55;;
3718;SDS011;1875;52.492;6.860;2023-12-20T05:25:00;22.67;;;5.43;;
3718;SDS011;1875;52.492;6.860;2023-12-20T05:27:28;20.25;;;4.70;;
3718;SDS011;1875;52.492;6.860;2023-12-20T05:29:56;24.20;;;4.38;;
3718;SDS011;1875;52.492;6.860;2023-12-20T05:32:25;17.15;;;3.45;;
3718;SDS011;1875;52.492;6.860;2023-12-20T05:34:53;26.17;;;5.07;;
3718;SDS011;1875;52.492;6.860;2023-12-20T05:37:21;16.27;;;3.70;;
3718;SDS011;1875;52.492;6.860;2023-12-20T05:39:49;17.25;;;2.83;;
3718;SDS011;1875;52.492;6.860;2023-12-20T05:42:17;26.63;;;5.50;;
3718;SDS011;1875;52.492;6.860;2023-12-20T05:44:45;22.00;;;6.13;;
3718;SDS011;1875;52.492;6.860;2023-12-20T05:47:13;15.07;;;2.72;;
3718;SDS011;1875;52.492;6.860;2023-12-20T05:49:43;14.65;;;4.20;;
3718;SDS011;1875;52.492;6.860;2023-12-20T05:52:11;26.60;;;3.90;;
3718;SDS011;1875;52.492;6.860;2023-12-20T05:54:39;17.77;;;4.13;;
3718;SDS011;1875;52.492;6.860;2023-12-20T05:57:07;22.60;;;3.78;;
3718;SDS011;1875;52.492;6.860;2023-12-20T05:59:34;6.95;;;2.85;;
3718;SDS011;1875;52.492;6.860;2023-12-20T06:02:03;15.05;;;3.45;;
3718;SDS011;1875;52.492;6.860;2023-12-20T06:04:31;22.98;;;3.88;;
3718;SDS011;1875;52.492;6.860;2023-12-20T06:07:00;27.83;;;4.38;;
3718;SDS011;1875;52.492;6.860;2023-12-20T06:09:29;15.70;;;3.78;;
3718;SDS011;1875;52.492;6.860;2023-12-20T06:11:57;18.52;;;3.13;;
3718;SDS011;1875;52.492;6.860;2023-12-20T06:14:25;15.70;;;3.08;;
3718;SDS011;1875;52.492;6.860;2023-12-20T06:16:53;20.83;;;4.53;;
3718;SDS011;1875;52.492;6.860;2023-12-20T06:19:21;16.85;;;3.28;;
3718;SDS011;1875;52.492;6.860;2023-12-20T06:21:49;13.05;;;3.00;;
3718;SDS011;1875;52.492;6.860;2023-12-20T06:24:18;17.98;;;3.08;;
3718;SDS011;1875;52.492;6.860;2023-12-20T06:26:46;12.18;;;3.45;;
3718;SDS011;1875;52.492;6.860;2023-12-20T06:29:14;11.00;;;3.38;;
3718;SDS011;1875;52.492;6.860;2023-12-20T06:31:41;15.23;;;4.07;;
3718;SDS011;1875;52.492;6.860;2023-12-20T06:34:09;17.10;;;3.85;;
3718;SDS011;1875;52.492;6.860;2023-12-20T06:36:37;20.27;;;5.13;;
3718;SDS011;1875;52.492;6.860;2023-12-20T06:39:05;16.40;;;3.47;;
3718;SDS011;1875;52.492;6.860;2023-12-20T06:41:34;22.25;;;4.13;;
3718;SDS011;1875;52.492;6.860;2023-12-20T06:44:02;6.75;;;2.60;;
3718;SDS011;1875;52.492;6.860;2023-12-20T06:46:30;9.38;;;2.80;;
3718;SDS011;1875;52.492;6.860;2023-12-20T06:48:58;13.93;;;3.20;;
3718;SDS011;1875;52.492;6.860;2023-12-20T06:51:25;14.65;;;3.50;;
3718;SDS011;1875;52.492;6.860;2023-12-20T06:53:53;14.90;;;3.08;;
3718;SDS011;1875;52.492;6.860;2023-12-20T06:56:21;18.50;;;3.30;;
3718;SDS011;1875;52.492;6.860;2023-12-20T06:58:50;9.50;;;3.25;;
3718;SDS011;1875;52.492;6.860;2023-12-20T07:01:18;12.68;;;2.50;;
3718;SDS011;1875;52.492;6.860;2023-12-20T07:03:46;17.95;;;4.38;;
3718;SDS011;1875;52.492;6.860;2023-12-20T07:06:14;13.27;;;3.72;;
3718;SDS011;1875;52.492;6.860;2023-12-20T07:08:43;19.73;;;3.30;;
3718;SDS011;1875;52.492;6.860;2023-12-20T07:11:11;15.57;;;3.55;;
3718;SDS011;1875;52.492;6.860;2023-12-20T07:13:39;15.93;;;3.88;;
3718;SDS011;1875;52.492;6.860;2023-12-20T07:16:08;22.27;;;5.13;;
3718;SDS011;1875;52.492;6.860;2023-12-20T07:18:36;14.30;;;5.13;;
3718;SDS011;1875;52.492;6.860;2023-12-20T07:21:04;17.30;;;2.60;;
3718;SDS011;1875;52.492;6.860;2023-12-20T07:23:34;10.98;;;2.65;;
3718;SDS011;1875;52.492;6.860;2023-12-20T07:26:02;13.90;;;3.40;;
3718;SDS011;1875;52.492;6.860;2023-12-20T07:28:30;18.48;;;3.58;;
3718;SDS011;1875;52.492;6.860;2023-12-20T07:30:58;22.13;;;3.90;;
3718;SDS011;1875;52.492;6.860;2023-12-20T07:33:27;15.45;;;2.38;;
3718;SDS011;1875;52.492;6.860;2023-12-20T07:35:59;14.05;;;2.40;;
3718;SDS011;1875;52.492;6.860;2023-12-20T07:38:27;14.18;;;3.20;;
3718;SDS011;1875;52.492;6.860;2023-12-20T07:40:55;11.02;;;2.47;;
3718;SDS011;1875;52.492;6.860;2023-12-20T07:43:22;15.55;;;3.40;;
3718;SDS011;1875;52.492;6.860;2023-12-20T07:45:50;14.18;;;3.70;;
3718;SDS011;1875;52.492;6.860;2023-12-20T07:48:18;8.35;;;2.70;;
3718;SDS011;1875;52.492;6.860;2023-12-20T07:50:47;12.80;;;2.50;;
3718;SDS011;1875;52.492;6.860;2023-12-20T07:53:15;12.75;;;2.97;;
3718;SDS011;1875;52.492;6.860;2023-12-20T07:55:43;8.35;;;2.30;;
3718;SDS011;1875;52.492;6.860;2023-12-20T07:58:11;23.88;;;3.65;;
3718;SDS011;1875;52.492;6.860;2023-12-20T08:00:38;22.80;;;4.57;;
3718;SDS011;1875;52.492;6.860;2023-12-20T08:03:06;19.17;;;3.58;;
3718;SDS011;1875;52.492;6.860;2023-12-20T08:05:34;14.98;;;2.88;;
3718;SDS011;1875;52.492;6.860;2023-12-20T08:08:04;18.00;;;4.18;;
3718;SDS011;1875;52.492;6.860;2023-12-20T08:10:32;20.33;;;4.32;;
3718;SDS011;1875;52.492;6.860;2023-12-20T08:13:00;13.23;;;2.80;;
3718;SDS011;1875;52.492;6.860;2023-12-20T08:15:28;10.20;;;2.20;;
3718;SDS011;1875;52.492;6.860;2023-12-20T08:17:56;14.38;;;3.35;;
3718;SDS011;1875;52.492;6.860;2023-12-20T08:20:24;18.30;;;3.38;;
3718;SDS011;1875;52.492;6.860;2023-12-20T08:23:04;14.35;;;2.45;;
3718;SDS011;1875;52.492;6.860;2023-12-20T08:25:31;15.48;;;2.58;;
3718;SDS011;1875;52.492;6.860;2023-12-20T08:27:59;14.10;;;2.45;;
3718;SDS011;1875;52.492;6.860;2023-12-20T08:30:27;20.23;;;3.58;;
3718;SDS011;1875;52.492;6.860;2023-12-20T08:32:56;10.23;;;2.22;;
3718;SDS011;1875;52.492;6.860;2023-12-20T08:35:24;21.70;;;3.20;;
3718;SDS011;1875;52.492;6.860;2023-12-20T08:37:51;16.05;;;3.13;;
3718;SDS011;1875;52.492;6.860;2023-12-20T08:40:20;9.55;;;2.75;;
3718;SDS011;1875;52.492;6.860;2023-12-20T08:42:48;11.07;;;3.13;;
3718;SDS011;1875;52.492;6.860;2023-12-20T08:45:16;13.38;;;3.63;;
3718;SDS011;1875;52.492;6.860;2023-12-20T08:47:44;21.33;;;4.80;;
3718;SDS011;1875;52.492;6.860;2023-12-20T08:50:12;14.07;;;3.55;;
3718;SDS011;1875;52.492;6.860;2023-12-20T08:55:09;17.45;;;3.42;;
3718;SDS011;1875;52.492;6.860;2023-12-20T08:57:38;13.27;;;3.58;;
3718;SDS011;1875;52.492;6.860;2023-12-20T09:05:04;15.93;;;3.78;;
3718;SDS011;1875;52.492;6.860;2023-12-20T09:07:32;21.45;;;4.15;;
3718;SDS011;1875;52.492;6.860;2023-12-20T09:10:00;15.55;;;3.47;;
3718;SDS011;1875;52.492;6.860;2023-12-20T09:12:28;16.63;;;3.88;;
3718;SDS011;1875;52.492;6.860;2023-12-20T09:14:57;15.85;;;3.47;;
3718;SDS011;1875;52.492;6.860;2023-12-20T09:17:25;20.92;;;3.95;;
3718;SDS011;1875;52.492;6.860;2023-12-20T09:19:53;17.45;;;4.10;;
3718;SDS011;1875;52.492;6.860;2023-12-20T09:22:21;21.30;;;4.30;;
3718;SDS011;1875;52.492;6.860;2023-12-20T09:24:49;11.55;;;2.58;;
3718;SDS011;1875;52.492;6.860;2023-12-20T09:27:17;13.50;;;3.13;;
3718;SDS011;1875;52.492;6.860;2023-12-20T09:29:45;21.95;;;3.45;;
3718;SDS011;1875;52.492;6.860;2023-12-20T09:32:16;10.15;;;2.30;;
3718;SDS011;1875;52.492;6.860;2023-12-20T09:34:44;17.88;;;5.25;;
3718;SDS011;1875;52.492;6.860;2023-12-20T09:37:11;17.63;;;4.13;;
3718;SDS011;1875;52.492;6.860;2023-12-20T09:39:39;13.68;;;3.72;;
3718;SDS011;1875;52.492;6.860;2023-12-20T09:42:07;20.15;;;3.72;;
3718;SDS011;1875;52.492;6.860;2023-12-20T09:44:35;20.90;;;3.65;;
3718;SDS011;1875;52.492;6.860;2023-12-20T09:47:03;20.67;;;4.13;;
3718;SDS011;1875;52.492;6.860;2023-12-20T09:49:33;20.58;;;5.25;;
3718;SDS011;1875;52.492;6.860;2023-12-20T09:52:02;7.32;;;2.03;;
3718;SDS011;1875;52.492;6.860;2023-12-20T09:54:31;13.70;;;3.63;;
3718;SDS011;1875;52.492;6.860;2023-12-20T09:56:58;11.65;;;3.58;;
3718;SDS011;1875;52.492;6.860;2023-12-20T09:59:26;13.13;;;3.28;;
3718;SDS011;1875;52.492;6.860;2023-12-20T10:01:54;20.38;;;4.10;;
3718;SDS011;1875;52.492;6.860;2023-12-20T10:04:24;15.23;;;4.10;;
3718;SDS011;1875;52.492;6.860;2023-12-20T10:07:01;16.10;;;3.28;;
3718;SDS011;1875;52.492;6.860;2023-12-20T10:09:32;19.17;;;3.08;;
3718;SDS011;1875;52.492;6.860;2023-12-20T10:12:01;24.23;;;5.25;;
3718;SDS011;1875;52.492;6.860;2023-12-20T10:14:29;13.98;;;3.45;;
3718;SDS011;1875;52.492;6.860;2023-12-20T10:17:01;14.07;;;3.05;;
3718;SDS011;1875;52.492;6.860;2023-12-20T10:19:30;17.77;;;4.13;;
3718;SDS011;1875;52.492;6.860;2023-12-20T10:22:00;10.38;;;2.90;;
3718;SDS011;1875;52.492;6.860;2023-12-20T10:24:28;24.08;;;4.55;;
3718;SDS011;1875;52.492;6.860;2023-12-20T10:27:02;14.35;;;3.42;;
3718;SDS011;1875;52.492;6.860;2023-12-20T10:29:32;15.45;;;3.45;;
3718;SDS011;1875;52.492;6.860;2023-12-20T10:32:22;21.75;;;3.78;;
3718;SDS011;1875;52.492;6.860;2023-12-20T10:34:51;17.45;;;3.53;;
3718;SDS011;1875;52.492;6.860;2023-12-20T10:37:20;13.20;;;2.90;;
3718;SDS011;1875;52.492;6.860;2023-12-20T10:42:17;15.25;;;3.47;;
3718;SDS011;1875;52.492;6.860;2023-12-20T10:44:46;19.25;;;2.78;;
3718;SDS011;1875;52.492;6.860;2023-12-20T10:47:14;20.38;;;3.40;;
3718;SDS011;1875;52.492;6.860;2023-12-20T10:49:42;11.50;;;2.83;;
3718;SDS011;1875;52.492;6.860;2023-12-20T10:52:11;12.40;;;3.15;;
3718;SDS011;1875;52.492;6.860;2023-12-20T10:54:40;4.47;;;1.20;;
3718;SDS011;1875;52.492;6.860;2023-12-20T10:57:08;6.78;;;1.80;;
3718;SDS011;1875;52.492;6.860;2023-12-20T10:59:36;17.13;;;2.33;;
3718;SDS011;1875;52.492;6.860;2023-12-20T11:02:05;18.02;;;2.72;;
3718;SDS011;1875;52.492;6.860;2023-12-20T11:04:37;11.60;;;1.90;;
3718;SDS011;1875;52.492;6.860;2023-12-20T11:07:15;7.38;;;1.40;;
3718;SDS011;1875;52.492;6.860;2023-12-20T11:09:47;8.30;;;2.67;;
3718;SDS011;1875;52.492;6.860;2023-12-20T11:12:20;6.20;;;1.60;;
3718;SDS011;1875;52.492;6.860;2023-12-20T11:14:53;7.47;;;1.63;;
3718;SDS011;1875;52.492;6.860;2023-12-20T11:17:22;6.80;;;2.08;;
3718;SDS011;1875;52.492;6.860;2023-12-20T11:20:07;7.90;;;2.65;;
3718;SDS011;1875;52.492;6.860;2023-12-20T11:22:37;6.05;;;2.05;;
3718;SDS011;1875;52.492;6.860;2023-12-20T11:25:10;10.07;;;2.88;;
3718;SDS011;1875;52.492;6.860;2023-12-20T11:27:40;10.55;;;2.22;;
3718;SDS011;1875;52.492;6.860;2023-12-20T11:30:10;5.10;;;1.20;;
3718;SDS011;1875;52.492;6.860;2023-12-20T11:32:38;9.75;;;2.25;;
3718;SDS011;1875;52.492;6.860;2023-12-20T11:35:17;6.65;;;1.55;;
3718;SDS011;1875;52.492;6.860;2023-12-20T11:37:46;10.40;;;1.85;;
3718;SDS011;1875;52.492;6.860;2023-12-20T11:40:16;4.53;;;1.52;;
3718;SDS011;1875;52.492;6.860;2023-12-20T11:42:46;9.90;;;1.70;;
3718;SDS011;1875;52.492;6.860;2023-12-20T11:45:18;8.80;;;1.60;;
3718;SDS011;1875;52.492;6.860;2023-12-20T11:47:48;6.10;;;1.75;;
3718;SDS011;1875;52.492;6.860;2023-12-20T11:50:17;9.80;;;2.63;;
3718;SDS011;1875;52.492;6.860;2023-12-20T11:52:46;10.55;;;2.58;;
3718;SDS011;1875;52.492;6.860;2023-12-20T11:55:14;11.20;;;1.73;;
3718;SDS011;1875;52.492;6.860;2023-12-20T11:57:43;5.97;;;1.40;;
3718;SDS011;1875;52.492;6.860;2023-12-20T12:00:13;7.55;;;1.15;;
3718;SDS011;1875;52.492;6.860;2023-12-20T12:02:41;5.90;;;1.27;;
3718;SDS011;1875;52.492;6.860;2023-12-20T12:05:12;5.53;;;1.38;;
3718;SDS011;1875;52.492;6.860;2023-12-20T12:07:39;9.68;;;2.30;;
3718;SDS011;1875;52.492;6.860;2023-12-20T12:10:07;11.70;;;2.50;;
3718;SDS011;1875;52.492;6.860;2023-12-20T12:12:35;9.43;;;1.60;;
3718;SDS011;1875;52.492;6.860;2023-12-20T12:15:06;15.77;;;1.98;;
3718;SDS011;1875;52.492;6.860;2023-12-20T12:17:34;5.65;;;1.17;;
3718;SDS011;1875;52.492;6.860;2023-12-20T12:20:03;8.85;;;2.03;;
3718;SDS011;1875;52.492;6.860;2023-12-20T12:22:33;5.70;;;1.65;;
3718;SDS011;1875;52.492;6.860;2023-12-20T12:25:09;6.25;;;0.93;;
3718;SDS011;1875;52.492;6.860;2023-12-20T12:27:39;6.22;;;1.15;;
3718;SDS011;1875;52.492;6.860;2023-12-20T12:30:09;4.30;;;1.52;;
3718;SDS011;1875;52.492;6.860;2023-12-20T12:32:39;8.50;;;1.08;;
3718;SDS011;1875;52.492;6.860;2023-12-20T12:35:08;5.68;;;1.90;;
3718;SDS011;1875;52.492;6.860;2023-12-20T12:37:37;8.80;;;1.75;;
3718;SDS011;1875;52.492;6.860;2023-12-20T12:40:06;8.20;;;1.10;;
3718;SDS011;1875;52.492;6.860;2023-12-20T12:42:35;9.23;;;1.60;;
3718;SDS011;1875;52.492;6.860;2023-12-20T12:45:04;5.95;;;1.70;;
3718;SDS011;1875;52.492;6.860;2023-12-20T12:47:35;9.10;;;1.17;;
3718;SDS011;1875;52.492;6.860;2023-12-20T12:52:31;7.78;;;1.38;;
3718;SDS011;1875;52.492;6.860;2023-12-20T12:54:59;4.45;;;1.17;;
3718;SDS011;1875;52.492;6.860;2023-12-20T12:57:27;8.18;;;1.88;;
3718;SDS011;1875;52.492;6.860;2023-12-20T12:59:54;7.70;;;1.17;;
3718;SDS011;1875;52.492;6.860;2023-12-20T13:02:22;2.63;;;0.95;;
3718;SDS011;1875;52.492;6.860;2023-12-20T13:04:52;1.40;;;0.57;;
3718;SDS011;1875;52.492;6.860;2023-12-20T13:07:20;10.35;;;1.58;;
3718;SDS011;1875;52.492;6.860;2023-12-20T13:09:47;6.55;;;1.23;;
3718;SDS011;1875;52.492;6.860;2023-12-20T13:12:15;4.45;;;0.75;;
3718;SDS011;1875;52.492;6.860;2023-12-20T13:14:43;9.00;;;1.25;;
3718;SDS011;1875;52.492;6.860;2023-12-20T13:17:11;7.55;;;1.35;;
3718;SDS011;1875;52.492;6.860;2023-12-20T13:19:39;4.35;;;1.00;;
3718;SDS011;1875;52.492;6.860;2023-12-20T13:22:08;6.32;;;0.95;;
3718;SDS011;1875;52.492;6.860;2023-12-20T13:24:36;6.45;;;1.52;;
3718;SDS011;1875;52.492;6.860;2023-12-20T13:27:04;8.82;;;1.33;;
3718;SDS011;1875;52.492;6.860;2023-12-20T13:29:32;5.13;;;0.93;;
3718;SDS011;1875;52.492;6.860;2023-12-20T13:32:04;9.25;;;1.50;;
3718;SDS011;1875;52.492;6.860;2023-12-20T13:34:32;6.72;;;1.58;;
3718;SDS011;1875;52.492;6.860;2023-12-20T13:37:00;8.77;;;1.05;;
3718;SDS011;1875;52.492;6.860;2023-12-20T13:39:30;8.60;;;1.58;;
3718;SDS011;1875;52.492;6.860;2023-12-20T13:44:27;5.65;;;1.40;;
3718;SDS011;1875;52.492;6.860;2023-12-20T13:46:55;10.10;;;1.35;;
3718;SDS011;1875;52.492;6.860;2023-12-20T13:49:22;6.22;;;1.50;;
3718;SDS011;1875;52.492;6.860;2023-12-20T13:51:52;6.88;;;2.10;;
3718;SDS011;1875;52.492;6.860;2023-12-20T13:54:21;7.20;;;1.98;;
3718;SDS011;1875;52.492;6.860;2023-12-20T13:56:50;6.38;;;1.05;;
3718;SDS011;1875;52.492;6.860;2023-12-20T13:59:37;8.40;;;1.27;;
3718;SDS011;1875;52.492;6.860;2023-12-20T14:02:05;8.35;;;1.10;;
3718;SDS011;1875;52.492;6.860;2023-12-20T14:04:32;7.43;;;1.20;;
3718;SDS011;1875;52.492;6.860;2023-12-20T14:07:09;6.20;;;1.35;;
3718;SDS011;1875;52.492;6.860;2023-12-20T14:09:39;7.68;;;1.80;;
3718;SDS011;1875;52.492;6.860;2023-12-20T14:12:13;6.75;;;1.95;;
3718;SDS011;1875;52.492;6.860;2023-12-20T14:14:41;7.40;;;1.90;;
3718;SDS011;1875;52.492;6.860;2023-12-20T14:17:11;6.10;;;1.70;;
3718;SDS011;1875;52.492;6.860;2023-12-20T14:19:39;7.55;;;1.80;;
3718;SDS011;1875;52.492;6.860;2023-12-20T14:22:07;9.43;;;2.28;;
3718;SDS011;1875;52.492;6.860;2023-12-20T14:24:34;9.15;;;2.75;;
3718;SDS011;1875;52.492;6.860;2023-12-20T14:27:02;5.30;;;1.73;;
3718;SDS011;1875;52.492;6.860;2023-12-20T14:29:32;19.73;;;2.30;;
3718;SDS011;1875;52.492;6.860;2023-12-20T14:31:59;9.50;;;2.00;;
3718;SDS011;1875;52.492;6.860;2023-12-20T14:36:57;12.98;;;2.47;;
3718;SDS011;1875;52.492;6.860;2023-12-20T14:39:25;14.40;;;2.97;;
3718;SDS011;1875;52.492;6.860;2023-12-20T14:41:52;17.50;;;4.00;;
3718;SDS011;1875;52.492;6.860;2023-12-20T14:44:20;10.52;;;2.10;;
3718;SDS011;1875;52.492;6.860;2023-12-20T14:46:50;20.30;;;3.97;;
3718;SDS011;1875;52.492;6.860;2023-12-20T14:49:17;12.20;;;3.67;;
3718;SDS011;1875;52.492;6.860;2023-12-20T14:51:45;24.55;;;4.93;;
3718;SDS011;1875;52.492;6.860;2023-12-20T14:54:14;19.23;;;4.88;;
3718;SDS011;1875;52.492;6.860;2023-12-20T14:56:42;26.63;;;5.18;;
3718;SDS011;1875;52.492;6.860;2023-12-20T14:59:10;13.02;;;2.72;;
3718;SDS011;1875;52.492;6.860;2023-12-20T15:01:38;19.48;;;3.72;;
3718;SDS011;1875;52.492;6.860;2023-12-20T15:04:08;14.85;;;3.38;;
3718;SDS011;1875;52.492;6.860;2023-12-20T15:09:04;17.35;;;4.03;;
3718;SDS011;1875;52.492;6.860;2023-12-20T15:11:32;15.10;;;4.13;;
3718;SDS011;1875;52.492;6.860;2023-12-20T15:14:00;11.45;;;3.30;;
3718;SDS011;1875;52.492;6.860;2023-12-20T15:16:29;19.55;;;3.47;;
3718;SDS011;1875;52.492;6.860;2023-12-20T15:18:57;16.70;;;3.20;;
3718;SDS011;1875;52.492;6.860;2023-12-20T15:21:26;17.58;;;3.33;;
3718;SDS011;1875;52.492;6.860;2023-12-20T15:23:58;18.38;;;3.58;;
3718;SDS011;1875;52.492;6.860;2023-12-20T15:26:37;14.73;;;2.90;;
3718;SDS011;1875;52.492;6.860;2023-12-20T15:29:05;14.05;;;2.47;;
3718;SDS011;1875;52.492;6.860;2023-12-20T15:31:34;10.85;;;2.15;;
3718;SDS011;1875;52.492;6.860;2023-12-20T15:34:03;23.23;;;3.00;;
3718;SDS011;1875;52.492;6.860;2023-12-20T15:36:32;20.83;;;3.92;;